createdAt,value
2023-12-05T07:32:28.801Z,49.02
2023-12-05T07:33:30.024Z,48.21
2023-12-05T07:34:30.012Z,48.82
2023-12-05T07:35:30.045Z,48.32
2023-12-05T07:36:30.159Z,47.89
2023-12-05T07:37:30.265Z,47.99
2023-12-05T07:38:30.353Z,47.69
2023-12-05T07:39:30.417Z,47.69
2023-12-05T08:15:06.062Z,48.69
2023-12-05T08:16:07.316Z,48.69
2023-12-05T08:17:07.182Z,48.39
2023-12-05T08:18:07.365Z,48.07
2023-12-05T08:19:07.384Z,47.86
2023-12-05T08:20:07.434Z,47.56
2023-12-05T08:21:07.442Z,47.36
2023-12-05T08:22:07.504Z,47.04
2023-12-05T08:23:07.494Z,46.94
2023-12-05T08:24:07.635Z,46.94
2023-12-05T08:25:07.613Z,46.73
2023-12-05T08:26:07.757Z,46.84
2023-12-05T08:27:07.734Z,46.73
2023-12-05T08:28:07.810Z,46.61
2023-12-05T08:29:07.774Z,46.41
2023-12-05T08:30:07.898Z,46.31
2023-12-05T08:31:07.907Z,46.51
2023-12-05T08:32:07.923Z,46.61
2023-12-05T08:33:08.002Z,46.31
2023-12-05T08:34:08.165Z,46.22
2023-12-05T08:35:08.222Z,46.22
2023-12-05T08:36:08.075Z,46.22
2023-12-05T08:37:08.058Z,46.01
2023-12-05T08:38:08.086Z,46.22
2023-12-05T08:39:08.094Z,45.91
2023-12-05T08:40:08.210Z,46.01
2023-12-05T08:41:08.221Z,45.91
2023-12-05T08:42:08.290Z,45.91
2023-12-05T08:43:08.358Z,45.91
2023-12-05T08:44:08.315Z,45.81
2023-12-05T08:45:08.377Z,46.01
2023-12-05T08:46:09.904Z,46.11
2023-12-05T08:47:08.446Z,46.01
2023-12-05T08:48:08.479Z,46.22
2023-12-05T08:49:08.546Z,46.31
2023-12-05T08:50:08.532Z,46.39
2023-12-05T08:51:08.555Z,46.11
2023-12-05T08:52:08.530Z,46.11
2023-12-05T08:53:08.601Z,46.22
2023-12-05T08:54:08.610Z,46.49
2023-12-05T08:55:08.645Z,46.41
2023-12-05T08:56:08.713Z,46.39
2023-12-05T08:57:08.653Z,46.19
2023-12-05T08:58:08.761Z,46.09
2023-12-05T12:08:20.286Z,42.94
2023-12-05T12:09:21.291Z,43.24
2023-12-05T12:10:21.281Z,43.44
2023-12-05T12:11:21.413Z,43.44
2023-12-05T12:12:21.701Z,43.74
2023-12-05T12:13:21.688Z,42.94
2023-12-05T12:14:21.799Z,43.64
2023-12-05T12:15:21.810Z,43.24
2023-12-05T12:16:21.950Z,43.84
2023-12-05T12:17:22.566Z,43.72
2023-12-05T12:18:22.331Z,43.12
2023-12-05T12:19:22.256Z,43.52
2023-12-05T12:20:22.221Z,43.42
2023-12-05T12:21:22.316Z,43.62
2023-12-05T12:22:22.362Z,43.52
2023-12-05T12:23:22.549Z,43.32
2023-12-05T12:24:22.570Z,42.72
2023-12-05T12:25:22.618Z,43.30
2023-12-05T12:26:22.637Z,42.49
2023-12-05T12:27:22.826Z,42.90
2023-12-05T12:28:22.805Z,42.69
2023-12-05T12:29:22.908Z,43.10
2023-12-05T12:30:23.012Z,42.69
2023-12-05T12:31:22.996Z,42.60
2023-12-05T12:32:23.070Z,42.60
2023-12-05T12:33:23.282Z,42.40
2023-12-05T12:34:23.250Z,42.40
2023-12-05T12:35:23.327Z,41.89
2023-12-05T12:36:23.490Z,42.10
2023-12-05T12:37:23.861Z,41.99
2023-12-05T12:38:23.562Z,41.97
2023-12-05T12:39:23.718Z,41.77
2023-12-05T12:40:23.842Z,41.77
2023-12-05T12:41:23.754Z,41.88
2023-12-05T12:42:23.925Z,22.06
2023-12-05T12:43:23.922Z,20.07
2023-12-05T12:44:24.082Z,20.10
2023-12-05T12:45:24.093Z,22.35
2023-12-05T12:46:24.158Z,25.39
2023-12-05T12:47:24.201Z,27.10
2023-12-05T12:48:24.536Z,29.52
2023-12-05T12:49:24.515Z,31.13
2023-12-05T12:50:24.538Z,34.89
2023-12-05T12:51:24.607Z,36.89
2023-12-05T12:52:24.705Z,36.53
2023-12-05T12:53:24.802Z,37.80
2023-12-05T12:54:24.943Z,38.33
2023-12-05T12:55:24.935Z,39.50
2023-12-05T12:56:25.046Z,40.03
2023-12-05T12:57:25.223Z,41.00
2023-12-05T12:58:25.354Z,42.67
2023-12-05T12:59:25.425Z,43.10
2023-12-05T13:00:32.470Z,43.54
2023-12-05T13:01:25.716Z,45.01
2023-12-05T13:02:25.782Z,45.54
2023-12-05T13:03:25.937Z,46.48
2023-12-05T13:04:28.109Z,46.30
2023-12-05T13:05:26.150Z,47.33
2023-12-05T13:06:26.350Z,49.11
2023-12-05T13:07:26.461Z,50.38
2023-12-05T13:08:26.619Z,51.23
2023-12-05T13:09:26.781Z,52.37
2023-12-05T13:10:26.857Z,51.57
2023-12-05T13:11:26.967Z,52.00
2023-12-05T13:12:27.232Z,52.65
2023-12-05T13:13:27.329Z,53.30
2023-12-05T13:14:27.493Z,54.26
2023-12-05T13:15:27.666Z,55.40
2023-12-05T13:16:27.796Z,55.43
2023-12-05T13:17:27.949Z,55.32
2023-12-05T13:18:28.193Z,57.01
2023-12-05T13:19:28.469Z,57.01
2023-12-05T13:20:28.408Z,56.47
2023-12-05T13:21:28.658Z,56.05
2023-12-05T13:51:23.207Z,60.46
2023-12-05T13:52:21.689Z,60.77
2023-12-05T13:53:21.674Z,61.11
2023-12-05T13:54:21.719Z,60.90
2023-12-05T13:55:21.864Z,60.17
2023-12-05T13:56:21.898Z,60.48
2023-12-05T13:57:22.661Z,60.66
2023-12-05T13:58:22.027Z,60.25
2023-12-05T13:59:22.040Z,60.35
2023-12-05T14:00:22.153Z,59.59
2023-12-05T14:01:22.245Z,58.86
2023-12-05T14:02:22.284Z,58.53
2023-12-05T14:03:25.043Z,58.00
2023-12-05T14:04:22.496Z,57.77
2023-12-05T14:05:22.655Z,57.77
2023-12-05T14:06:22.655Z,57.56
2023-12-05T14:07:22.670Z,57.67
2023-12-05T14:08:22.624Z,58.70
2023-12-05T14:09:25.282Z,59.25
2023-12-05T14:10:22.764Z,60.11
2023-12-05T14:11:22.903Z,60.71
2023-12-05T14:12:22.969Z,60.19
2023-12-05T14:13:23.056Z,59.05
2023-12-05T14:14:23.067Z,59.80
2023-12-05T14:15:25.859Z,60.01
2023-12-05T14:16:23.240Z,60.35
2023-12-05T14:17:23.350Z,61.00
2023-12-05T14:18:23.405Z,61.42
2023-12-05T14:19:23.465Z,62.15
2023-12-05T14:20:23.428Z,61.66
2023-12-05T14:21:23.587Z,62.07
2023-12-05T14:22:23.677Z,63.46
2023-12-05T14:23:23.812Z,63.80
2023-12-05T14:24:23.749Z,64.64
2023-12-05T14:25:23.882Z,64.77
2023-12-05T14:26:23.940Z,64.74
2023-12-05T14:27:26.043Z,65.50
2023-12-05T14:28:24.109Z,64.98
2023-12-05T14:29:24.212Z,64.67
2023-12-05T14:30:24.223Z,64.98
2023-12-05T14:31:24.372Z,64.87
2023-12-05T14:32:24.383Z,64.14
2023-12-05T14:33:24.518Z,64.36
2023-12-05T14:34:24.589Z,64.67
2023-12-05T14:35:24.627Z,64.36
2023-12-05T14:36:24.714Z,64.04
2023-12-05T14:37:24.773Z,63.73
2023-12-05T14:38:24.784Z,63.59
2023-12-05T14:39:25.073Z,62.86
2023-12-05T14:40:24.998Z,62.86
2023-12-05T14:41:25.165Z,63.07
2023-12-05T14:42:25.326Z,62.96
2023-12-05T14:43:25.337Z,62.65
2023-12-05T14:44:25.348Z,63.18
2023-12-05T14:45:26.646Z,63.28
2023-12-05T14:46:25.659Z,63.90
2023-12-05T14:47:25.671Z,63.83
2023-12-05T14:48:25.793Z,63.90
2023-12-05T14:49:25.876Z,64.14
2023-12-05T14:50:25.822Z,65.37
2023-12-05T14:51:27.285Z,65.09
2023-12-05T14:52:26.120Z,64.98
2023-12-05T14:53:26.131Z,65.19
2023-12-05T14:54:26.230Z,65.09
2023-12-05T14:55:26.319Z,64.67
2023-12-05T14:56:26.405Z,64.87
2023-12-05T14:57:27.096Z,64.98
2023-12-05T14:58:26.543Z,65.61
2023-12-05T14:59:26.686Z,65.61
2023-12-05T15:00:26.731Z,64.77
2023-12-05T15:01:26.908Z,64.77
2023-12-05T15:02:26.945Z,64.98
2023-12-05T15:03:27.072Z,66.24
2023-12-05T15:04:27.151Z,66.58
2023-12-05T15:05:27.192Z,67.52
2023-12-05T15:06:27.359Z,67.21
2023-12-05T15:07:27.401Z,66.78
2023-12-05T15:08:27.437Z,67.00
2023-12-05T15:09:27.606Z,66.47
2023-12-05T15:10:27.636Z,65.95
2023-12-05T15:11:27.816Z,65.43
2023-12-05T15:12:27.912Z,65.64
2023-12-05T15:13:27.939Z,66.27
2023-12-05T15:14:27.987Z,66.78
2023-12-05T15:15:28.153Z,66.78
2023-12-05T15:16:28.198Z,67.13
2023-12-05T15:17:28.381Z,67.65
2023-12-05T15:18:28.435Z,68.07
2023-12-05T15:19:28.602Z,68.49
2023-12-05T15:20:28.717Z,68.70
2023-12-05T15:21:30.033Z,67.97
2023-12-05T15:22:28.824Z,67.55
2023-12-05T15:23:28.885Z,69.12
2023-12-05T15:24:28.966Z,68.60
2023-12-05T15:25:29.078Z,68.38
2023-12-05T15:26:29.149Z,68.38
2023-12-05T15:27:29.296Z,67.65
2023-12-05T15:28:29.491Z,67.24
2023-12-05T15:29:36.457Z,67.34
2023-12-05T15:30:29.525Z,67.34
2023-12-05T15:31:29.663Z,68.28
2023-12-05T15:32:29.742Z,68.38
2023-12-05T15:33:29.934Z,68.07
2023-12-05T15:34:30.004Z,67.65
2023-12-05T15:35:30.047Z,67.90
2023-12-05T15:36:30.210Z,68.21
2023-12-05T15:37:30.278Z,68.00
2023-12-05T15:38:30.574Z,68.31
2023-12-05T15:39:30.423Z,68.84
2023-12-05T15:40:30.466Z,69.26
2023-12-05T15:41:30.620Z,69.99
2023-12-05T15:42:30.778Z,70.09
2023-12-05T15:43:30.847Z,70.40
2023-12-05T15:44:31.180Z,70.61
2023-12-05T15:45:31.017Z,70.61
2023-12-05T15:46:31.112Z,69.99
2023-12-05T15:47:31.292Z,69.99
2023-12-05T15:48:43.807Z,69.67
2023-12-05T15:49:31.469Z,69.67
2023-12-05T15:50:31.635Z,69.99
2023-12-05T15:51:31.708Z,70.61
2023-12-05T15:52:31.803Z,69.99
2023-12-05T15:53:31.771Z,70.20
2023-12-05T15:54:31.969Z,70.23
2023-12-05T15:55:31.976Z,70.23
2023-12-05T15:56:32.181Z,70.33
2023-12-05T15:57:32.264Z,83.55
2023-12-05T15:58:32.258Z,98.86
2023-12-05T15:59:32.449Z,99.99
2023-12-05T16:00:32.596Z,99.99
2023-12-05T16:01:32.849Z,99.99
2023-12-05T16:02:32.778Z,99.99
2023-12-05T16:03:32.982Z,99.99
2023-12-05T16:04:32.860Z,99.99
2023-12-05T16:05:33.159Z,99.99
2023-12-05T16:06:33.230Z,83.68
2023-12-05T16:07:33.246Z,75.55
2023-12-05T16:08:33.253Z,71.15
2023-12-05T16:09:33.630Z,67.99
2023-12-05T16:10:33.427Z,65.08
2023-12-05T16:11:33.599Z,62.45
2023-12-05T16:12:33.671Z,63.40
2023-12-05T16:13:33.722Z,60.91
2023-12-05T16:14:33.753Z,58.95
2023-12-05T16:15:33.833Z,57.91
2023-12-05T16:16:33.923Z,56.57
2023-12-05T16:17:34.039Z,55.90
2023-12-05T16:18:34.020Z,54.97
2023-12-05T16:19:34.062Z,54.16
2023-12-05T16:20:34.040Z,53.52
2023-12-05T16:21:34.263Z,53.09
2023-12-05T16:22:34.159Z,52.67
2023-12-05T16:23:34.217Z,52.06
2023-12-05T16:24:34.247Z,51.43
2023-12-05T16:25:34.301Z,50.92
2023-12-05T16:26:34.375Z,50.49
2023-12-05T16:27:34.403Z,50.19
2023-12-05T16:28:35.847Z,50.19
2023-12-05T16:29:34.381Z,49.96
2023-12-05T16:30:34.496Z,49.87
2023-12-05T16:31:34.469Z,49.46
2023-12-05T16:32:34.557Z,49.33
2023-12-05T16:33:34.547Z,49.13
2023-12-05T16:34:34.645Z,48.73
2023-12-05T16:35:34.540Z,48.81
2023-12-05T16:36:34.599Z,48.61
2023-12-05T16:37:34.640Z,48.61
2023-12-05T16:38:34.628Z,48.30
2023-12-05T16:39:34.665Z,48.10
2023-12-05T16:40:34.602Z,48.00
2023-12-05T16:41:34.692Z,48.30
2023-12-05T16:42:34.709Z,47.88
2023-12-05T16:43:34.699Z,48.18
2023-12-05T16:44:34.687Z,48.28
2023-12-05T16:45:34.795Z,48.79
2023-12-05T16:46:34.768Z,46.06
2023-12-05T16:47:34.813Z,41.42
2023-12-05T16:48:34.807Z,36.79
2023-12-05T16:49:34.839Z,39.81
2023-12-05T16:50:34.780Z,40.12
2023-12-05T16:51:34.779Z,39.21
2023-12-05T16:52:34.870Z,38.91
2023-12-05T16:53:34.770Z,39.11
2023-12-05T16:54:34.893Z,39.41
2023-12-05T16:55:34.761Z,39.72
2023-12-05T16:56:34.785Z,40.01
2023-12-05T16:57:34.830Z,40.62
2023-12-05T16:58:34.814Z,41.13
2023-12-05T16:59:35.612Z,41.53
2023-12-05T17:00:34.904Z,41.93
2023-12-05T17:01:34.916Z,42.13
2023-12-05T17:02:34.804Z,42.03
2023-12-05T17:03:34.849Z,42.24
2023-12-05T17:04:34.849Z,42.33
2023-12-05T17:05:34.696Z,42.54
2023-12-05T17:06:34.785Z,42.44
2023-12-05T17:07:34.700Z,42.72
2023-12-05T17:08:34.721Z,42.64
2023-12-05T17:09:34.729Z,42.61
2023-12-05T17:10:34.702Z,42.61
2023-12-05T17:11:34.611Z,42.82
2023-12-05T17:12:34.670Z,42.82
2023-12-05T17:13:34.582Z,42.61
2023-12-05T17:14:34.603Z,42.72
2023-12-05T17:15:36.278Z,42.72
2023-12-05T17:16:34.625Z,42.82
2023-12-05T17:17:34.690Z,42.82
2023-12-05T17:18:34.620Z,42.92
2023-12-05T17:19:34.622Z,42.92
2023-12-05T17:20:34.523Z,42.92
2023-12-05T17:21:34.558Z,42.82
2023-12-05T17:22:34.519Z,43.02
2023-12-05T17:23:34.427Z,42.92
2023-12-05T17:24:34.426Z,42.90
2023-12-05T17:25:34.366Z,43.00
2023-12-05T17:26:34.373Z,43.00
2023-12-05T17:27:34.364Z,43.00
2023-12-05T17:28:34.403Z,43.30
2023-12-05T17:29:34.300Z,43.20
2023-12-05T17:30:35.311Z,43.30
2023-12-05T17:31:34.229Z,43.10
2023-12-05T17:32:34.277Z,43.10
2023-12-05T17:33:34.323Z,43.00
2023-12-05T17:34:34.384Z,43.30
2023-12-05T17:35:34.136Z,43.30
2023-12-05T17:36:34.227Z,43.40
2023-12-05T17:37:34.139Z,43.60
2023-12-05T17:38:34.134Z,43.30
2023-12-05T17:39:34.144Z,43.40
2023-12-05T17:40:34.142Z,43.30
2023-12-05T17:41:34.077Z,43.20
2023-12-05T17:42:34.149Z,43.51
2023-12-05T17:43:34.043Z,43.20
2023-12-05T17:44:34.035Z,43.51
2023-12-05T17:45:34.056Z,43.40
2023-12-05T17:46:34.041Z,43.30
2023-12-05T17:47:33.907Z,43.51
2023-12-05T17:48:33.985Z,43.30
2023-12-05T17:49:34.041Z,43.30
2023-12-05T17:50:33.818Z,43.40
2023-12-05T17:51:33.927Z,43.30
2023-12-05T17:52:33.821Z,43.20
2023-12-05T17:53:33.814Z,43.40
2023-12-05T17:54:33.804Z,43.30
2023-12-05T17:55:33.747Z,43.71
2023-12-05T17:56:33.655Z,44.21
2023-12-05T17:57:33.762Z,43.91
2023-12-05T17:58:33.652Z,43.71
2023-12-05T17:59:35.296Z,45.50
2023-12-05T18:00:33.571Z,43.99
2023-12-05T18:01:34.190Z,43.79
2023-12-05T18:02:36.282Z,43.48
2023-12-05T18:03:33.654Z,43.48
2023-12-05T18:04:34.199Z,43.38
2023-12-05T18:05:33.420Z,43.38
2023-12-05T18:06:33.351Z,43.48
2023-12-05T18:07:53.485Z,43.59
2023-12-05T18:08:33.302Z,43.59
2023-12-05T18:09:33.581Z,43.59
2023-12-05T18:10:33.255Z,43.68
2023-12-05T18:11:33.209Z,43.59
2023-12-05T18:12:33.439Z,43.99
2023-12-05T18:13:33.184Z,43.88
2023-12-05T18:14:33.159Z,43.79
2023-12-05T18:15:33.560Z,43.68
2023-12-05T18:16:33.039Z,43.79
2023-12-05T18:17:33.531Z,43.79
2023-12-05T18:18:33.576Z,43.48
2023-12-05T18:19:33.037Z,43.68
2023-12-05T18:20:32.942Z,43.68
2023-12-05T18:21:32.918Z,43.88
2023-12-05T18:22:33.099Z,43.87
2023-12-05T18:23:32.818Z,43.76
2023-12-05T18:24:33.541Z,43.87
2023-12-05T18:25:33.488Z,43.66
2023-12-05T18:26:32.766Z,43.66
2023-12-05T18:27:32.809Z,43.56
2023-12-05T18:28:33.104Z,43.56
2023-12-05T18:29:33.513Z,43.66
2023-12-05T18:30:32.658Z,43.66
2023-12-05T18:31:33.504Z,43.46
2023-12-05T18:32:33.564Z,43.56
2023-12-05T18:33:32.670Z,43.66
2023-12-05T18:34:32.630Z,43.76
2023-12-05T18:35:33.004Z,43.66
2023-12-05T18:36:32.549Z,43.56
2023-12-05T18:37:32.382Z,43.56
2023-12-05T18:38:32.382Z,43.76
2023-12-05T18:39:32.373Z,43.87
2023-12-05T18:40:32.378Z,44.07
2023-12-05T18:41:32.277Z,44.07
2023-12-05T18:42:32.323Z,44.07
2023-12-05T18:43:34.063Z,43.87
2023-12-05T18:44:33.026Z,43.54
2023-12-05T18:45:32.201Z,43.74
2023-12-05T18:46:32.535Z,43.84
2023-12-05T18:47:32.148Z,43.95
2023-12-05T18:48:32.138Z,44.04
2023-12-05T18:49:32.179Z,43.74
2023-12-05T18:50:32.030Z,43.84
2023-12-05T18:51:32.113Z,44.24
2023-12-05T18:52:32.098Z,43.84
2023-12-05T18:53:32.544Z,43.74
2023-12-05T18:54:32.034Z,43.84
2023-12-05T18:55:32.564Z,44.04
2023-12-05T18:56:32.520Z,43.95
2023-12-05T18:57:32.177Z,43.74
2023-12-05T18:58:31.864Z,44.04
2023-12-05T18:59:31.794Z,44.24
2023-12-05T19:00:31.787Z,43.95
2023-12-05T19:01:31.803Z,43.74
2023-12-05T19:02:31.780Z,43.84
2023-12-05T19:03:31.728Z,43.95
2023-12-05T19:04:31.645Z,44.04
2023-12-05T19:05:31.688Z,44.24
2023-12-05T19:06:33.436Z,45.05
2023-12-05T19:07:31.516Z,44.55
2023-12-05T19:08:31.523Z,44.75
2023-12-05T19:09:31.520Z,44.95
2023-12-05T19:10:31.443Z,44.85
2023-12-05T19:11:31.426Z,44.85
2023-12-05T19:12:31.388Z,44.95
2023-12-05T19:13:31.345Z,45.15
2023-12-05T19:14:31.280Z,45.37
2023-12-05T19:15:31.376Z,45.15
2023-12-05T19:16:32.371Z,45.25
2023-12-05T19:17:31.256Z,45.35
2023-12-05T19:18:31.321Z,45.47
2023-12-05T19:19:31.275Z,45.67
2023-12-05T19:20:31.115Z,45.67
2023-12-05T19:21:31.187Z,45.78
2023-12-05T19:22:31.100Z,45.78
2023-12-05T19:23:31.560Z,45.65
2023-12-05T19:24:31.042Z,45.55
2023-12-05T19:25:30.943Z,45.75
2023-12-05T19:26:30.968Z,45.78
2023-12-05T19:27:30.985Z,46.38
2023-12-05T19:28:34.125Z,46.48
2023-12-05T19:29:30.840Z,46.26
2023-12-05T19:30:30.940Z,46.26
2023-12-05T19:31:30.907Z,46.86
2023-12-05T19:32:30.689Z,46.15
2023-12-05T19:33:30.752Z,45.75
2023-12-05T19:34:40.218Z,46.26
2023-12-05T19:35:30.706Z,46.56
2023-12-05T19:36:30.616Z,46.86
2023-12-05T19:37:30.596Z,46.26
2023-12-05T19:38:30.529Z,46.06
2023-12-05T19:39:30.533Z,45.75
2023-12-05T19:40:30.605Z,45.65
2023-12-05T19:41:30.459Z,45.55
2023-12-05T19:42:30.399Z,45.35
2023-12-05T19:43:30.368Z,45.25
2023-12-05T19:44:30.347Z,45.15
2023-12-05T19:45:30.680Z,45.15
2023-12-05T19:46:30.278Z,45.25
2023-12-05T19:47:31.166Z,45.15
2023-12-05T19:48:30.299Z,45.05
2023-12-05T19:49:30.292Z,45.15
2023-12-05T19:50:30.601Z,45.15
2023-12-05T19:51:30.184Z,45.05
2023-12-05T19:52:30.199Z,44.95
2023-12-05T19:53:29.966Z,44.95
2023-12-05T19:54:29.916Z,45.15
2023-12-05T19:55:29.933Z,45.15
2023-12-05T19:56:29.835Z,45.05
2023-12-05T19:57:29.890Z,45.15
2023-12-05T19:58:29.803Z,44.85
2023-12-05T19:59:31.354Z,45.35
2023-12-05T20:00:29.781Z,45.25
2023-12-05T20:01:29.722Z,43.24
2023-12-05T20:02:29.682Z,43.95
2023-12-05T20:03:29.750Z,43.04
2023-12-05T20:04:29.719Z,42.64
2023-12-05T20:05:29.571Z,42.64
2023-12-05T20:06:29.498Z,43.04
2023-12-05T20:07:29.487Z,43.54
2023-12-05T20:08:29.434Z,43.95
2023-12-05T20:09:29.567Z,43.44
2023-12-05T20:10:29.509Z,41.83
2023-12-05T20:11:29.320Z,41.63
2023-12-05T20:12:29.344Z,41.63
2023-12-05T20:13:29.243Z,41.83
2023-12-05T20:14:29.163Z,41.83
2023-12-05T20:15:29.224Z,42.03
2023-12-05T20:16:29.118Z,42.24
2023-12-05T20:17:29.726Z,42.33
2023-12-05T20:18:29.165Z,42.35
2023-12-05T20:19:29.056Z,42.46
2023-12-05T20:20:29.006Z,42.76
2023-12-05T20:21:29.033Z,42.66
2023-12-05T20:22:28.937Z,42.66
2023-12-05T20:23:28.839Z,42.76
2023-12-05T20:24:28.885Z,42.66
2023-12-05T20:25:28.766Z,42.76
2023-12-05T20:26:28.758Z,42.86
2023-12-05T20:27:28.761Z,42.86
2023-12-05T20:28:28.713Z,42.86
2023-12-05T20:29:28.622Z,42.76
2023-12-05T20:30:28.682Z,42.76
2023-12-05T20:31:28.523Z,42.86
2023-12-05T20:32:28.532Z,42.76
2023-12-05T20:33:28.610Z,42.76
2023-12-05T20:34:28.616Z,42.96
2023-12-05T20:35:28.389Z,42.76
2023-12-05T20:36:28.346Z,42.86
2023-12-05T20:37:28.306Z,42.86
2023-12-05T20:38:28.294Z,42.96
2023-12-05T20:39:28.287Z,42.96
2023-12-05T20:40:28.234Z,43.06
2023-12-05T20:41:28.122Z,42.88
2023-12-05T20:42:28.394Z,42.86
2023-12-05T20:43:28.038Z,42.96
2023-12-05T20:44:28.057Z,42.98
2023-12-05T20:45:28.002Z,42.88
2023-12-05T20:46:27.994Z,42.86
2023-12-05T20:47:27.962Z,42.78
2023-12-05T20:48:27.981Z,42.98
2023-12-05T20:49:28.040Z,42.78
2023-12-05T20:50:27.848Z,42.76
2023-12-05T20:51:27.897Z,42.76
2023-12-05T20:52:27.842Z,42.66
2023-12-05T20:53:27.766Z,42.66
2023-12-05T20:54:27.705Z,42.66
2023-12-05T20:55:27.724Z,42.78
2023-12-05T20:56:27.646Z,42.66
2023-12-05T20:57:27.715Z,42.76
2023-12-05T20:58:27.599Z,42.66
2023-12-05T20:59:27.579Z,42.76
2023-12-05T21:00:27.589Z,42.66
2023-12-05T21:01:27.533Z,42.76
2023-12-05T21:02:27.434Z,42.66
2023-12-05T21:03:27.488Z,42.55
2023-12-05T21:04:27.461Z,42.55
2023-12-05T21:05:27.317Z,42.55
2023-12-05T21:06:27.239Z,42.76
2023-12-05T21:07:29.521Z,41.85
2023-12-05T21:09:08.677Z,41.65
2023-12-05T21:09:27.184Z,42.05
2023-12-05T21:10:27.120Z,42.05
2023-12-05T21:11:27.091Z,42.46
2023-12-05T21:12:27.000Z,42.55
2023-12-05T21:13:27.006Z,42.25
2023-12-05T21:14:26.921Z,42.46
2023-12-05T21:15:26.940Z,42.35
2023-12-05T21:16:26.921Z,42.55
2023-12-05T21:17:27.003Z,42.55
2023-12-05T21:18:26.965Z,42.35
2023-12-05T21:19:26.853Z,42.35
2023-12-05T21:20:26.785Z,42.55
2023-12-05T21:21:26.744Z,42.55
2023-12-05T21:22:26.758Z,42.46
2023-12-05T21:23:26.666Z,42.66
2023-12-05T21:24:26.602Z,42.76
2023-12-05T21:25:26.781Z,42.66
2023-12-05T21:26:26.533Z,42.66
2023-12-05T21:27:26.535Z,42.86
2023-12-05T21:28:26.511Z,43.06
2023-12-05T21:29:27.053Z,43.06
2023-12-05T21:30:27.928Z,43.06
2023-12-05T21:31:26.362Z,43.06
2023-12-05T21:32:26.281Z,43.06
2023-12-05T21:33:26.318Z,43.16
2023-12-05T21:34:26.328Z,43.26
2023-12-05T21:35:26.202Z,43.36
2023-12-05T21:36:26.119Z,43.26
2023-12-05T21:37:26.231Z,43.16
2023-12-05T21:38:26.040Z,43.16
2023-12-05T21:39:26.075Z,43.16
2023-12-05T21:40:25.999Z,43.26
2023-12-05T21:41:25.985Z,43.26
2023-12-05T21:42:26.629Z,43.36
2023-12-05T21:43:26.599Z,43.26
2023-12-05T21:44:26.276Z,43.16
2023-12-05T21:45:25.910Z,43.16
2023-12-05T21:46:25.882Z,43.16
2023-12-05T21:47:25.813Z,43.14
2023-12-05T21:48:25.966Z,43.34
2023-12-05T21:49:25.787Z,43.24
2023-12-05T21:50:27.262Z,43.24
2023-12-05T21:51:26.995Z,43.24
2023-12-05T21:52:25.738Z,43.14
2023-12-05T21:53:25.666Z,43.14
2023-12-05T21:54:28.344Z,43.24
2023-12-05T21:55:25.681Z,43.44
2023-12-05T21:56:25.586Z,43.64
2023-12-05T21:57:25.659Z,43.44
2023-12-05T21:58:25.572Z,43.34
2023-12-05T21:59:25.512Z,43.44
2023-12-05T22:00:25.919Z,43.34
2023-12-05T22:01:25.612Z,43.34
2023-12-05T22:02:25.416Z,43.54
2023-12-05T22:03:25.424Z,43.54
2023-12-05T22:04:25.511Z,43.54
2023-12-05T22:05:27.006Z,43.54
2023-12-05T22:06:26.109Z,43.64
2023-12-05T22:07:26.355Z,43.84
2023-12-05T22:08:26.858Z,43.54
2023-12-05T22:09:25.220Z,43.64
2023-12-05T22:10:25.217Z,43.54
2023-12-05T22:11:25.961Z,43.54
2023-12-05T22:12:28.440Z,43.54
2023-12-05T22:13:25.101Z,43.44
2023-12-05T22:14:25.036Z,43.64
2023-12-05T22:15:25.062Z,43.54
2023-12-05T22:16:25.019Z,43.64
2023-12-05T22:17:24.930Z,43.64
2023-12-05T22:18:24.947Z,43.84
2023-12-05T22:19:24.965Z,43.64
2023-12-05T22:20:24.810Z,43.64
2023-12-05T22:21:26.048Z,43.84
2023-12-05T22:22:24.797Z,43.74
2023-12-05T22:23:25.749Z,43.95
2023-12-05T22:24:29.946Z,43.95
2023-12-05T22:25:24.722Z,43.95
2023-12-05T22:26:24.659Z,43.84
2023-12-05T22:27:24.698Z,43.95
2023-12-05T22:28:24.628Z,43.84
2023-12-05T22:29:25.023Z,43.95
2023-12-05T22:30:24.642Z,44.04
2023-12-05T22:31:24.750Z,43.95
2023-12-05T22:32:24.532Z,43.84
2023-12-05T22:33:24.718Z,43.95
2023-12-05T22:34:24.576Z,43.95
2023-12-05T22:35:24.428Z,43.95
2023-12-05T22:36:25.112Z,43.95
2023-12-05T22:37:25.931Z,43.95
2023-12-05T22:38:25.173Z,43.95
2023-12-05T22:39:24.324Z,44.15
2023-12-05T22:40:24.355Z,44.15
2023-12-05T22:41:24.213Z,44.15
2023-12-05T22:42:24.206Z,44.15
2023-12-05T22:43:24.136Z,44.15
2023-12-05T22:44:24.151Z,44.15
2023-12-05T22:45:24.091Z,43.84
2023-12-05T22:46:24.133Z,43.74
2023-12-05T22:47:23.997Z,43.84
2023-12-05T22:48:24.022Z,43.95
2023-12-05T22:49:23.994Z,43.74
2023-12-05T22:50:23.919Z,43.84
2023-12-05T22:51:23.945Z,43.84
2023-12-05T22:52:23.972Z,43.74
2023-12-05T22:53:23.812Z,43.74
2023-12-05T22:54:23.849Z,43.64
2023-12-05T22:55:23.775Z,43.74
2023-12-05T22:56:23.743Z,43.84
2023-12-05T22:57:23.990Z,43.64
2023-12-05T22:58:23.745Z,43.54
2023-12-05T22:59:23.645Z,43.54
2023-12-05T23:00:23.586Z,43.44
2023-12-05T23:01:23.589Z,43.64
2023-12-05T23:02:23.556Z,43.64
2023-12-05T23:03:23.576Z,43.34
2023-12-05T23:04:23.499Z,43.44
2023-12-05T23:05:23.449Z,43.34
2023-12-05T23:06:23.427Z,43.24
2023-12-05T23:07:23.321Z,43.24
2023-12-05T23:08:23.327Z,43.24
2023-12-05T23:09:23.320Z,43.04
2023-12-05T23:10:23.314Z,43.14
2023-12-05T23:11:23.180Z,43.04
2023-12-05T23:12:23.174Z,43.04
2023-12-05T23:13:23.101Z,43.24
2023-12-05T23:14:23.116Z,43.04
2023-12-05T23:15:23.077Z,43.04
2023-12-05T23:16:23.091Z,42.94
2023-12-05T23:17:23.308Z,43.04
2023-12-05T23:18:22.995Z,42.94
2023-12-05T23:19:23.010Z,42.84
2023-12-05T23:20:22.919Z,43.04
2023-12-05T23:21:22.893Z,43.04
2023-12-05T23:22:22.853Z,42.94
2023-12-05T23:23:22.760Z,42.84
2023-12-05T23:24:22.774Z,42.84
2023-12-05T23:25:22.708Z,42.84
2023-12-05T23:26:22.692Z,42.74
2023-12-05T23:27:22.880Z,42.74
2023-12-05T23:28:25.712Z,42.74
2023-12-05T23:29:22.572Z,42.76
2023-12-05T23:30:22.545Z,42.76
2023-12-05T23:31:22.601Z,42.74
2023-12-05T23:32:22.584Z,42.76
2023-12-05T23:33:22.619Z,42.55
2023-12-05T23:34:22.583Z,42.66
2023-12-05T23:35:22.453Z,42.66
2023-12-05T23:36:22.355Z,42.66
2023-12-05T23:37:22.886Z,42.76
2023-12-05T23:38:22.336Z,42.76
2023-12-05T23:39:22.348Z,42.66
2023-12-05T23:40:22.275Z,42.66
2023-12-05T23:41:22.267Z,42.55
2023-12-05T23:42:22.204Z,42.66
2023-12-05T23:43:22.204Z,42.66
2023-12-05T23:44:22.117Z,42.66
2023-12-05T23:45:22.192Z,42.66
2023-12-05T23:46:22.069Z,42.55
2023-12-05T23:47:24.651Z,42.55
2023-12-05T23:48:22.010Z,42.66
2023-12-05T23:49:22.004Z,42.55
2023-12-05T23:50:21.873Z,42.66
2023-12-05T23:51:21.970Z,42.55
2023-12-05T23:52:21.836Z,42.55
2023-12-05T23:53:21.811Z,42.55
2023-12-05T23:54:21.736Z,42.55
2023-12-05T23:55:21.716Z,42.35
2023-12-05T23:56:21.675Z,42.25
2023-12-05T23:57:21.991Z,42.46
2023-12-05T23:58:21.638Z,42.25
2023-12-05T23:59:21.596Z,42.25
